createdAt,value
2018-06-21T00:01:18.696Z,99.90
2018-06-21T00:03:47.095Z,99.90
2018-06-21T00:06:15.537Z,99.90
2018-06-21T00:08:43.969Z,99.90
2018-06-21T00:11:12.382Z,99.90
2018-06-21T00:13:40.904Z,99.90
2018-06-21T00:16:09.338Z,99.90
2018-06-21T00:18:37.760Z,99.90
2018-06-21T00:21:06.441Z,99.90
2018-06-21T00:23:34.977Z,99.90
2018-06-21T00:26:03.399Z,99.90
2018-06-21T00:28:31.840Z,99.90
2018-06-21T00:31:00.237Z,99.90
2018-06-21T00:33:28.646Z,99.90
2018-06-21T00:35:57.122Z,99.90
2018-06-21T00:38:25.541Z,99.90
2018-06-21T00:40:54.012Z,99.90
2018-06-21T00:43:22.441Z,99.90
2018-06-21T00:45:51.098Z,99.90
2018-06-21T00:48:19.480Z,99.90
2018-06-21T00:50:47.897Z,99.90
2018-06-21T00:53:16.280Z,99.90
2018-06-21T00:58:18.549Z,99.90
2018-06-21T01:00:46.900Z,99.90
2018-06-21T01:03:15.264Z,99.90
2018-06-21T01:05:43.602Z,99.90
2018-06-21T01:08:11.945Z,99.90
2018-06-21T01:10:41.460Z,99.90
2018-06-21T01:13:09.885Z,99.90
2018-06-21T01:15:38.245Z,99.90
2018-06-21T01:18:06.612Z,99.90
2018-06-21T01:20:35.366Z,99.90
2018-06-21T01:23:03.728Z,99.90
2018-06-21T01:25:32.175Z,99.90
2018-06-21T01:28:00.694Z,99.90
2018-06-21T01:30:29.059Z,99.90
2018-06-21T01:32:57.425Z,99.90
2018-06-21T01:35:25.985Z,99.90
2018-06-21T01:37:54.376Z,99.90
2018-06-21T01:40:22.820Z,99.90
2018-06-21T01:45:19.764Z,99.90
2018-06-21T01:47:48.141Z,99.90
2018-06-21T01:50:16.517Z,99.90
2018-06-21T01:52:44.883Z,99.90
2018-06-21T01:55:13.281Z,99.90
2018-06-21T01:57:41.650Z,99.90
2018-06-21T02:00:10.021Z,99.90
2018-06-21T02:02:38.378Z,99.90
2018-06-21T02:05:06.806Z,99.90
2018-06-21T02:07:35.161Z,99.90
2018-06-21T02:10:03.593Z,99.90
2018-06-21T02:12:31.952Z,99.90
2018-06-21T02:15:00.387Z,99.90
2018-06-21T02:17:29.502Z,99.90
2018-06-21T02:22:26.218Z,99.90
2018-06-21T02:24:54.611Z,99.90
2018-06-21T02:27:22.981Z,99.90
2018-06-21T02:29:51.366Z,99.90
2018-06-21T02:32:19.792Z,99.90
2018-06-21T02:34:48.643Z,99.90
2018-06-21T02:37:17.100Z,99.90
2018-06-21T02:39:45.444Z,99.90
2018-06-21T02:42:13.826Z,99.90
2018-06-21T02:44:42.401Z,99.90
2018-06-21T02:47:10.756Z,99.90
2018-06-21T02:49:39.171Z,99.90
2018-06-21T02:52:07.561Z,99.90
2018-06-21T02:54:35.939Z,99.90
2018-06-21T02:57:04.379Z,99.90
2018-06-21T02:59:32.752Z,99.90
2018-06-21T03:02:01.520Z,99.90
2018-06-21T03:04:29.982Z,99.90
2018-06-21T03:06:58.333Z,99.90
2018-06-21T03:09:26.735Z,99.90
2018-06-21T03:11:55.153Z,99.90
2018-06-21T03:14:23.547Z,99.90
2018-06-21T03:16:51.936Z,99.90
2018-06-21T03:21:48.440Z,99.90
2018-06-21T03:24:16.832Z,99.90
2018-06-21T03:26:45.248Z,99.90
2018-06-21T03:29:13.619Z,99.90
2018-06-21T03:31:42.013Z,99.90
2018-06-21T03:34:10.749Z,99.90
2018-06-21T03:36:39.144Z,99.90
2018-06-21T03:39:07.704Z,99.90
2018-06-21T03:41:36.186Z,99.90
2018-06-21T03:44:04.590Z,99.90
2018-06-21T03:46:32.958Z,99.90
2018-06-21T03:49:01.385Z,99.90
2018-06-21T03:51:29.839Z,99.90
2018-06-21T03:53:58.173Z,99.90
2018-06-21T03:56:26.728Z,99.90
2018-06-21T03:58:55.175Z,99.90
2018-06-21T04:01:23.614Z,99.90
2018-06-21T04:03:52.044Z,99.90
2018-06-21T04:08:48.623Z,99.90
2018-06-21T04:11:17.003Z,99.90
2018-06-21T04:13:45.416Z,99.90
2018-06-21T04:16:13.809Z,99.90
2018-06-21T04:18:42.204Z,99.90
2018-06-21T04:21:10.585Z,99.90
2018-06-21T04:23:39.021Z,99.90
2018-06-21T04:28:35.936Z,99.90
2018-06-21T04:31:04.315Z,99.90
2018-06-21T04:33:32.756Z,99.90
2018-06-21T04:36:01.118Z,99.90
2018-06-21T04:38:29.955Z,99.90
2018-06-21T04:40:58.396Z,99.90
2018-06-21T04:43:26.787Z,99.90
2018-06-21T04:45:55.209Z,99.90
2018-06-21T04:48:23.793Z,99.90
2018-06-21T04:50:52.223Z,99.90
2018-06-21T04:53:20.726Z,99.90
2018-06-21T04:58:17.489Z,99.90
2018-06-21T05:00:46.103Z,99.90
2018-06-21T05:03:14.493Z,99.90
2018-06-21T05:05:43.057Z,99.90
2018-06-21T05:10:39.910Z,99.90
2018-06-21T05:13:08.342Z,99.90
2018-06-21T05:15:36.758Z,99.90
2018-06-21T05:18:05.497Z,99.90
2018-06-21T05:20:33.929Z,99.90
2018-06-21T05:23:02.286Z,99.90
2018-06-21T05:25:30.715Z,99.90
2018-06-21T05:27:59.097Z,99.90
2018-06-21T05:30:27.432Z,99.90
2018-06-21T05:32:56.117Z,99.90
2018-06-21T05:35:24.474Z,99.90
2018-06-21T05:37:52.836Z,99.90
2018-06-21T05:40:31.444Z,99.90
2018-06-21T05:43:00.897Z,99.90
2018-06-21T05:45:29.947Z,99.90
2018-06-21T05:48:00.133Z,99.90
2018-06-21T05:50:29.781Z,99.90
2018-06-21T05:52:58.965Z,99.90
2018-06-21T05:55:27.731Z,99.90
2018-06-21T06:00:24.659Z,99.90
2018-06-21T06:02:53.419Z,99.90
2018-06-21T06:05:21.895Z,99.90
2018-06-21T06:07:50.317Z,99.90
2018-06-21T06:10:18.686Z,99.90
2018-06-21T06:12:47.008Z,99.90
2018-06-21T06:15:15.333Z,99.90
2018-06-21T06:17:43.659Z,99.90
2018-06-21T06:20:11.949Z,99.90
2018-06-21T06:22:40.309Z,99.90
2018-06-21T06:25:08.623Z,99.90
2018-06-21T06:27:36.980Z,99.90
2018-06-21T06:30:06.372Z,99.90
2018-06-21T06:32:34.950Z,99.90
2018-06-21T06:35:03.360Z,99.90
2018-06-21T06:37:31.737Z,99.90
2018-06-21T06:40:00.091Z,99.90
2018-06-21T06:42:28.457Z,99.90
2018-06-21T06:44:56.816Z,99.90
2018-06-21T06:47:25.582Z,99.30
2018-06-21T06:49:54.106Z,98.00
2018-06-21T06:52:22.830Z,97.10
2018-06-21T06:54:51.608Z,97.00
2018-06-21T06:57:20.251Z,97.90
2018-06-21T06:59:48.616Z,97.00
2018-06-21T07:02:16.960Z,96.60
2018-06-21T07:04:45.347Z,97.10
2018-06-21T07:07:13.889Z,97.30
2018-06-21T07:09:42.178Z,95.30
2018-06-21T07:12:10.954Z,95.30
2018-06-21T07:14:39.236Z,95.20
2018-06-21T07:17:07.531Z,96.50
2018-06-21T07:19:35.884Z,97.00
2018-06-21T07:22:04.143Z,96.00
2018-06-21T07:24:32.419Z,95.10
2018-06-21T07:27:00.711Z,94.60
2018-06-21T07:31:57.365Z,95.40
2018-06-21T07:34:25.635Z,95.00
2018-06-21T07:36:53.889Z,94.10
2018-06-21T07:39:22.162Z,95.20
2018-06-21T07:41:50.439Z,95.50
2018-06-21T07:44:18.761Z,96.20
2018-06-21T07:46:47.069Z,95.70
2018-06-21T07:49:15.525Z,94.90
2018-06-21T07:51:43.929Z,95.40
2018-06-21T07:54:12.207Z,95.40
2018-06-21T07:56:41.160Z,94.50
2018-06-21T07:59:09.558Z,93.50
2018-06-21T08:01:38.041Z,92.70
2018-06-21T08:04:06.518Z,91.70
2018-06-21T08:06:34.894Z,92.00
2018-06-21T08:09:04.710Z,91.90
2018-06-21T08:11:32.990Z,92.40
2018-06-21T08:14:01.284Z,92.00
2018-06-21T08:16:29.835Z,90.60
2018-06-21T08:18:58.142Z,92.40
2018-06-21T08:21:26.407Z,93.70
2018-06-21T08:23:54.706Z,92.90
2018-06-21T08:26:22.980Z,94.00
2018-06-21T08:28:51.277Z,93.60
2018-06-21T08:31:19.535Z,92.50
2018-06-21T08:33:47.805Z,92.10
2018-06-21T08:36:16.071Z,91.30
2018-06-21T08:38:44.350Z,89.10
2018-06-21T08:41:12.932Z,90.40
2018-06-21T08:43:41.230Z,86.80
2018-06-21T08:46:09.570Z,88.00
2018-06-21T08:48:37.995Z,90.10
2018-06-21T08:51:07.864Z,89.90
2018-06-21T08:53:36.447Z,89.20
2018-06-21T08:56:04.731Z,90.00
2018-06-21T08:58:32.999Z,90.50
2018-06-21T09:01:01.303Z,90.30
2018-06-21T09:03:29.643Z,91.00
2018-06-21T09:05:57.948Z,90.40
2018-06-21T09:08:26.245Z,90.30
2018-06-21T09:13:23.027Z,86.80
2018-06-21T09:15:51.323Z,87.80
2018-06-21T09:18:19.631Z,88.90
2018-06-21T09:20:48.219Z,84.60
2018-06-21T09:23:16.531Z,87.20
2018-06-21T09:25:44.809Z,86.00
2018-06-21T09:28:13.044Z,87.40
2018-06-21T09:30:41.304Z,83.50
2018-06-21T09:33:09.610Z,81.90
2018-06-21T09:35:38.056Z,86.60
2018-06-21T09:40:53.456Z,85.40
2018-06-21T09:43:26.973Z,85.80
2018-06-21T09:46:00.912Z,87.20
2018-06-21T09:48:30.581Z,88.60
2018-06-21T09:51:00.034Z,88.80
2018-06-21T09:53:28.745Z,85.80
2018-06-21T09:55:57.688Z,83.70
2018-06-21T09:58:25.975Z,84.30
2018-06-21T10:00:59.611Z,84.20
2018-06-21T10:03:27.940Z,82.70
2018-06-21T10:05:56.455Z,81.50
2018-06-21T10:08:24.734Z,82.60
2018-06-21T10:10:53.031Z,81.80
2018-06-21T10:13:21.354Z,81.80
2018-06-21T10:15:49.711Z,79.70
2018-06-21T10:18:18.426Z,79.90
2018-06-21T10:20:46.766Z,81.70
2018-06-21T10:23:15.056Z,80.70
2018-06-21T10:25:43.305Z,83.20
2018-06-21T10:28:11.572Z,85.10
2018-06-21T10:30:39.811Z,87.30
2018-06-21T10:33:08.083Z,85.60
2018-06-21T10:35:36.360Z,83.60
2018-06-21T10:38:04.645Z,83.80
2018-06-21T10:40:32.884Z,82.20
2018-06-21T10:43:01.142Z,80.90
2018-06-21T10:45:29.401Z,81.00
2018-06-21T10:47:57.680Z,80.60
2018-06-21T10:50:25.964Z,82.80
2018-06-21T10:52:54.238Z,82.90
2018-06-21T10:55:22.508Z,81.80
2018-06-21T10:57:50.785Z,83.00
2018-06-21T11:00:19.091Z,83.40
2018-06-21T11:02:47.387Z,83.70
2018-06-21T11:05:15.823Z,84.00
2018-06-21T11:07:44.084Z,88.00
2018-06-21T11:10:12.576Z,90.00
2018-06-21T11:12:40.860Z,89.40
2018-06-21T11:15:09.144Z,89.10
2018-06-21T11:17:37.577Z,85.30
2018-06-21T11:20:06.211Z,83.50
2018-06-21T11:22:34.478Z,84.20
2018-06-21T11:25:02.789Z,83.60
2018-06-21T11:27:31.096Z,85.90
2018-06-21T11:29:59.363Z,85.50
2018-06-21T11:32:27.653Z,85.90
2018-06-21T11:34:55.923Z,85.80
2018-06-21T11:37:24.201Z,85.10
2018-06-21T11:39:52.489Z,85.20
2018-06-21T11:42:20.787Z,82.60
2018-06-21T11:44:49.108Z,82.70
2018-06-21T11:47:17.376Z,84.80
2018-06-21T11:52:14.017Z,88.80
2018-06-21T11:54:42.443Z,89.60
2018-06-21T11:57:10.738Z,90.30
2018-06-21T11:59:39.135Z,90.80
2018-06-21T12:02:07.366Z,90.50
2018-06-21T12:07:03.692Z,90.20
2018-06-21T12:09:31.965Z,90.20
2018-06-21T12:12:00.235Z,90.20
2018-06-21T12:14:28.667Z,90.90
2018-06-21T12:16:56.951Z,90.60
2018-06-21T12:19:25.257Z,90.00
2018-06-21T12:21:53.529Z,87.00
2018-06-21T12:24:21.842Z,89.00
2018-06-21T12:26:50.112Z,91.60
2018-06-21T12:29:18.395Z,90.20
2018-06-21T12:31:46.711Z,91.70
2018-06-21T12:34:14.984Z,90.20
2018-06-21T12:36:43.268Z,90.50
2018-06-21T12:39:11.540Z,90.90
2018-06-21T12:41:39.866Z,90.80
2018-06-21T12:46:36.519Z,90.30
2018-06-21T12:49:04.810Z,87.90
2018-06-21T12:51:33.227Z,88.40
2018-06-21T12:54:01.562Z,86.20
2018-06-21T12:56:29.858Z,84.00
2018-06-21T13:01:26.379Z,87.70
2018-06-21T13:03:54.662Z,91.20
2018-06-21T13:06:22.946Z,92.40
2018-06-21T13:09:02.648Z,94.90
2018-06-21T13:11:40.926Z,95.10
2018-06-21T13:14:22.683Z,95.20
2018-06-21T13:16:50.982Z,95.30
2018-06-21T13:19:19.270Z,94.60
2018-06-21T13:21:47.563Z,93.10
2018-06-21T13:24:15.823Z,92.10
2018-06-21T13:26:44.070Z,91.00
2018-06-21T13:29:12.327Z,91.00
2018-06-21T13:31:40.595Z,90.00
2018-06-21T13:34:08.850Z,89.90
2018-06-21T13:36:37.154Z,90.90
2018-06-21T13:39:07.059Z,90.40
2018-06-21T13:41:35.330Z,91.50
2018-06-21T13:44:03.578Z,92.40
2018-06-21T13:46:31.936Z,91.30
2018-06-21T13:49:00.246Z,92.30
2018-06-21T13:51:28.541Z,93.40
2018-06-21T13:53:56.796Z,93.70
2018-06-21T13:56:25.119Z,91.30
2018-06-21T13:58:53.388Z,91.50
2018-06-21T14:01:22.073Z,90.60
2018-06-21T14:03:50.362Z,88.80
2018-06-21T14:06:18.627Z,89.40
2018-06-21T14:08:46.908Z,88.50
2018-06-21T14:11:15.476Z,91.30
2018-06-21T14:13:43.751Z,89.00
2018-06-21T14:16:12.078Z,90.10
2018-06-21T14:18:40.590Z,89.70
2018-06-21T14:21:08.864Z,87.90
2018-06-21T14:23:37.182Z,87.60
2018-06-21T14:26:05.911Z,90.30
2018-06-21T14:28:34.576Z,89.00
2018-06-21T14:31:02.919Z,87.90
2018-06-21T14:35:59.791Z,85.30
2018-06-21T14:38:28.640Z,84.10
2018-06-21T14:40:57.556Z,84.60
2018-06-21T14:43:26.400Z,84.90
2018-06-21T14:45:55.272Z,86.60
2018-06-21T14:48:23.631Z,88.30
2018-06-21T14:50:52.064Z,90.50
2018-06-21T14:53:20.340Z,88.90
2018-06-21T14:55:48.677Z,84.50
2018-06-21T14:58:17.596Z,84.70
2018-06-21T15:00:46.546Z,86.10
2018-06-21T15:03:15.108Z,86.60
2018-06-21T15:05:43.453Z,87.20
2018-06-21T15:08:11.784Z,88.40
2018-06-21T15:10:40.275Z,88.70
2018-06-21T15:13:08.608Z,90.50
2018-06-21T15:15:36.920Z,90.10
2018-06-21T15:18:05.551Z,90.80
2018-06-21T15:20:34.189Z,90.60
2018-06-21T15:23:02.433Z,87.40
2018-06-21T15:25:31.197Z,89.80
2018-06-21T15:27:59.490Z,88.00
2018-06-21T15:30:28.097Z,85.40
2018-06-21T15:32:56.960Z,86.30
2018-06-21T15:35:25.274Z,87.50
2018-06-21T15:37:53.557Z,87.60
2018-06-21T15:40:21.865Z,89.20
2018-06-21T15:42:50.180Z,90.00
2018-06-21T15:45:18.501Z,89.30
2018-06-21T15:47:46.930Z,87.30
2018-06-21T15:50:15.265Z,86.10
2018-06-21T15:52:43.599Z,90.00
2018-06-21T15:55:11.933Z,88.80
2018-06-21T15:57:40.464Z,88.20
2018-06-21T16:00:10.781Z,89.50
2018-06-21T16:02:40.529Z,90.70
2018-06-21T16:05:09.415Z,90.80
2018-06-21T16:07:38.546Z,89.20
2018-06-21T16:10:07.413Z,85.30
2018-06-21T16:12:36.250Z,83.80
2018-06-21T16:15:05.136Z,79.50
2018-06-21T16:17:33.979Z,84.30
2018-06-21T16:20:02.884Z,85.80
2018-06-21T16:22:31.709Z,84.70
2018-06-21T16:25:00.026Z,87.20
2018-06-21T16:27:28.888Z,88.00
2018-06-21T16:29:57.767Z,86.60
2018-06-21T16:32:26.614Z,84.40
2018-06-21T16:34:55.874Z,82.10
2018-06-21T16:37:24.860Z,80.30
2018-06-21T16:39:53.742Z,78.40
2018-06-21T16:42:22.558Z,79.50
2018-06-21T16:44:51.400Z,82.00
2018-06-21T16:47:20.265Z,85.50
2018-06-21T16:49:49.101Z,89.60
2018-06-21T16:52:17.622Z,91.50
2018-06-21T16:54:45.921Z,91.50
2018-06-21T16:57:14.257Z,93.00
2018-06-21T16:59:42.778Z,91.00
2018-06-21T17:02:11.189Z,91.70
2018-06-21T17:04:39.741Z,89.60
2018-06-21T17:09:37.457Z,87.50
2018-06-21T17:12:06.515Z,86.30
2018-06-21T17:14:35.641Z,88.20
2018-06-21T17:17:04.076Z,90.20
2018-06-21T17:19:32.792Z,91.00
2018-06-21T17:22:01.321Z,92.10
2018-06-21T17:24:29.625Z,92.60
2018-06-21T17:29:26.239Z,91.80
2018-06-21T17:31:54.911Z,91.00
2018-06-21T17:34:23.262Z,90.20
2018-06-21T17:36:51.584Z,90.40
2018-06-21T17:39:20.101Z,90.40
2018-06-21T17:41:48.425Z,90.70
2018-06-21T17:44:16.743Z,89.90
2018-06-21T17:46:45.246Z,87.90
2018-06-21T17:49:13.549Z,89.20
2018-06-21T17:51:41.824Z,90.10
2018-06-21T17:54:10.186Z,90.20
2018-06-21T17:56:38.658Z,90.40
2018-06-21T17:59:07.048Z,89.80
2018-06-21T18:01:35.623Z,90.40
2018-06-21T18:04:03.964Z,90.80
2018-06-21T18:06:32.260Z,91.20
2018-06-21T18:09:00.659Z,91.90
2018-06-21T18:11:28.999Z,90.20
2018-06-21T18:13:57.287Z,89.70
2018-06-21T18:16:25.829Z,88.90
2018-06-21T18:18:54.491Z,88.80
2018-06-21T18:21:22.862Z,87.80
2018-06-21T18:26:19.193Z,88.10
2018-06-21T18:28:47.528Z,89.10
2018-06-21T18:31:15.872Z,90.20
2018-06-21T18:33:44.284Z,90.00
2018-06-21T18:36:13.024Z,89.10
2018-06-21T18:38:41.341Z,90.00
2018-06-21T18:41:10.011Z,89.10
2018-06-21T18:43:41.864Z,90.00
2018-06-21T18:46:10.206Z,89.80
2018-06-21T18:48:38.537Z,90.20
2018-06-21T18:51:07.003Z,90.50
2018-06-21T18:53:35.310Z,89.50
2018-06-21T18:56:03.672Z,88.20
2018-06-21T18:58:32.016Z,89.40
2018-06-21T19:01:00.364Z,86.10
2018-06-21T19:03:28.680Z,87.70
2018-06-21T19:05:57.035Z,87.60
2018-06-21T19:08:30.683Z,89.70
2018-06-21T19:11:04.498Z,89.70
2018-06-21T19:13:32.827Z,90.50
2018-06-21T19:16:02.289Z,90.30
2018-06-21T19:18:32.098Z,91.10
2018-06-21T19:21:03.492Z,91.50
2018-06-21T19:23:32.866Z,91.60
2018-06-21T19:26:01.856Z,91.50
2018-06-21T19:28:30.670Z,91.50
2018-06-21T19:30:59.734Z,91.80
2018-06-21T19:33:29.559Z,91.90
2018-06-21T19:35:58.562Z,92.20
2018-06-21T19:38:28.526Z,92.40
2018-06-21T19:40:57.207Z,92.40
2018-06-21T19:43:27.488Z,92.80
2018-06-21T19:45:57.395Z,93.20
2018-06-21T19:48:25.990Z,93.50
2018-06-21T19:50:55.532Z,93.40
2018-06-21T19:53:24.229Z,93.30
2018-06-21T19:55:52.832Z,93.80
2018-06-21T19:58:21.175Z,94.30
2018-06-21T20:00:50.919Z,94.30
2018-06-21T20:03:20.417Z,94.00
2018-06-21T20:05:49.128Z,94.10
2018-06-21T20:08:18.244Z,94.10
2018-06-21T20:10:51.924Z,93.30
2018-06-21T20:13:20.708Z,93.40
2018-06-21T20:15:51.320Z,93.00
2018-06-21T20:18:20.261Z,93.30
2018-06-21T20:23:18.231Z,92.40
2018-06-21T20:25:46.681Z,92.20
2018-06-21T20:28:15.856Z,92.50
2018-06-21T20:30:44.563Z,92.20
2018-06-21T20:33:13.073Z,91.80
2018-06-21T20:35:41.910Z,91.50
2018-06-21T20:40:39.439Z,91.10
2018-06-21T20:43:07.873Z,91.20
2018-06-21T20:45:45.833Z,91.70
2018-06-21T20:48:14.208Z,91.90
2018-06-21T20:50:45.777Z,91.90
2018-06-21T20:53:14.119Z,91.80
2018-06-21T20:55:43.393Z,91.60
2018-06-21T20:58:11.694Z,90.20
2018-06-21T21:00:40.103Z,88.90
2018-06-21T21:03:08.621Z,87.50
2018-06-21T21:05:36.979Z,88.70
2018-06-21T21:08:05.417Z,88.10
2018-06-21T21:10:33.734Z,88.40
2018-06-21T21:13:02.537Z,88.90
2018-06-21T21:15:31.922Z,90.00
2018-06-21T21:20:29.882Z,90.00
2018-06-21T21:22:58.649Z,90.20
2018-06-21T21:25:27.205Z,90.10
2018-06-21T21:27:55.801Z,90.40
2018-06-21T21:30:24.288Z,91.00
2018-06-21T21:32:52.682Z,90.60
2018-06-21T21:35:20.973Z,90.50
2018-06-21T21:37:49.262Z,90.20
2018-06-21T21:40:17.574Z,89.20
2018-06-21T21:42:45.918Z,87.90
2018-06-21T21:45:14.249Z,88.20
2018-06-21T21:47:42.561Z,89.80
2018-06-21T21:50:10.831Z,88.80
2018-06-21T21:52:39.238Z,89.50
2018-06-21T21:55:07.679Z,89.70
2018-06-21T21:57:35.984Z,88.10
2018-06-21T22:00:05.608Z,88.80
2018-06-21T22:02:33.904Z,89.60
2018-06-21T22:05:02.965Z,89.80
2018-06-21T22:07:31.319Z,90.20
2018-06-21T22:09:59.573Z,90.00
2018-06-21T22:12:27.819Z,90.20
2018-06-21T22:14:56.084Z,89.20
2018-06-21T22:17:24.344Z,88.10
2018-06-21T22:19:52.676Z,87.50
2018-06-21T22:22:20.948Z,87.90
2018-06-21T22:24:49.239Z,88.30
2018-06-21T22:27:17.494Z,89.80
2018-06-21T22:29:45.760Z,90.00
2018-06-21T22:32:14.082Z,89.70
2018-06-21T22:34:42.384Z,89.50
2018-06-21T22:37:10.632Z,88.50
2018-06-21T22:39:38.936Z,88.20
2018-06-21T22:42:07.195Z,89.10
2018-06-21T22:44:35.471Z,88.60
2018-06-21T22:47:03.726Z,89.30
2018-06-21T22:49:31.997Z,90.10
2018-06-21T22:52:00.260Z,89.90
2018-06-21T22:54:28.507Z,89.30
2018-06-21T22:56:56.768Z,89.70
2018-06-21T22:59:25.073Z,90.20
2018-06-21T23:01:53.341Z,90.00
2018-06-21T23:04:21.673Z,90.30
2018-06-21T23:06:49.991Z,90.20
2018-06-21T23:09:18.736Z,90.30
2018-06-21T23:11:47.002Z,89.90
2018-06-21T23:14:15.284Z,90.30
2018-06-21T23:16:43.546Z,90.70
2018-06-21T23:19:24.166Z,91.50
2018-06-21T23:21:52.420Z,90.90
2018-06-21T23:24:20.683Z,90.80
2018-06-21T23:26:49.104Z,91.10
2018-06-21T23:29:17.629Z,91.10
2018-06-21T23:31:45.916Z,91.00
2018-06-21T23:34:14.258Z,90.90
2018-06-21T23:36:42.529Z,90.70
2018-06-21T23:39:11.689Z,91.60
2018-06-21T23:41:40.712Z,91.20
2018-06-21T23:44:09.194Z,91.50
2018-06-21T23:46:37.565Z,91.40
2018-06-21T23:49:06.161Z,91.20
2018-06-21T23:51:34.644Z,91.60
2018-06-21T23:54:02.899Z,91.60
2018-06-21T23:56:31.177Z,91.60
2018-06-21T23:58:59.425Z,91.70
